Aérodrome :
LOGIN :

S'inscrire | Disclaimer

   EN    FR    IT 

 










Légende :    VFR   VFR Marginal   IFR   IFR Intensif   IFR Très Intensif
Visi : 
Plafond : 
>= 8 km
>= 3000ft
5 à 8 km
1000 à 3000 ft
1500m à 5 km
500 à 1000 ft
800 à 1500m
200 à 500 ft
< 800m
< 200 ft
Symboles :   Orages  Brouillard  Fortes neiges  Fortes précipitations  Vent > 20 kt
SIGMETs :   Divers  Orages  Givrage  Turbulence  Onde Orograph.  Cendres Volcan.






- Altitude de l'aérodrome : 194 ft
- Code IATA : ANE


LFJR - Angers Marcé

DERNIER METAR :
  • 170400Z AUTO VRB02KT 9000 BKN002 OVC023 15/15 Q1010

METARs EXPIRÉS :
  • 170330Z AUTO VRB02KT 9000 SCT002 BKN013 OVC024 15/15 Q1010
  • 170300Z AUTO VRB02KT 4100 -RADZ BR FEW003 SCT019 OVC028 15/15 Q1010
  • 170230Z AUTO 00000KT 6000 -RADZ SCT026 OVC036 15/15 Q1010
  • 170200Z AUTO VRB02KT 9999 SCT008 BKN023 OVC029 15/15 Q1010
  • 170130Z AUTO 00000KT 9999 BKN023 OVC028 15/14 Q1010
  • 170100Z AUTO 00000KT 9999 FEW011 OVC023 14/14 Q1010
  • 170030Z AUTO VRB02KT 9999 BKN024 OVC029 15/14 Q1010
  • 170000Z AUTO VRB02KT 9999 BKN029 14/13 Q1010
  • 162330Z AUTO VRB01KT 9999 BKN036 OVC043 14/14 Q1010

Prévision TAF périmée.



MET'MAP, la Météo Aéronautique d'un coup d'oeil ! - Copyright ORBIFLY Décembre 2007 - Disclaimer

ORBIFLY MET'MAP TEAM :

Programmation & Développement : Alexandra Zaïnal
Sur une idée originale de : Baudouin d'Aumeries
Soutien technique & logistique : Manuel Goepfert
Assistance : Marc-Olivier Méhu




SOURCES & CREDITS :

   NOAA